Time;durP1;ratioP1;P1;durP2;ratioP2;P2;SDS_P1;SDS_P2;PMS_P1;PMS_P2;Temp;Humidity;BMP_temperature;BMP_pressure;BME280_temperature;BME280_humidity;BME280_pressure;Samples;Min_cycle;Max_cycle;Signal;HPM_P1;HPM_P2
2022/03/14 00:02:15;;;;;;;13.38;8.90;;;;;;;;;;5010969;28;20401;-77
2022/03/14 00:04:41;;;;;;;14.48;8.80;;;;;;;;;;5011169;28;20510;-76
2022/03/14 00:07:07;;;;;;;14.30;8.70;;;;;;;;;;4995273;28;20412;-77
2022/03/14 00:09:33;;;;;;;15.15;9.07;;;;;;;;;;5011621;28;20119;-76
2022/03/14 00:11:59;;;;;;;13.75;8.90;;;;;;;;;;5011297;28;20091;-76
2022/03/14 00:14:25;;;;;;;13.35;8.60;;;;;;;;;;5010318;28;20524;-76
2022/03/14 00:16:55;;;;;;;13.70;8.50;;;;;;;;;;4994741;28;20052;-77
2022/03/14 00:19:21;;;;;;;11.75;7.85;;;;;;;;;;5010670;28;20069;-77
2022/03/14 00:21:49;;;;;;;12.52;8.07;;;;;;;;;;5028874;28;20503;-77
2022/03/14 00:24:15;;;;;;;11.70;7.85;;;;;;;;;;5010711;28;20161;-78
2022/03/14 00:26:41;;;;;;;10.93;7.05;;;;;;;;;;5010369;28;20070;-77
2022/03/14 00:29:08;;;;;;;10.93;7.50;;;;;;;;;;5027761;28;20053;-77
2022/03/14 00:31:34;;;;;;;11.48;7.63;;;;;;;;;;5010579;28;20098;-76
2022/03/14 00:34:01;;;;;;;11.48;7.60;;;;;;;;;;4994112;28;20486;-77
2022/03/14 00:36:28;;;;;;;12.85;7.85;;;;;;;;;;5010705;28;20534;-76
2022/03/14 00:38:55;;;;;;;13.02;8.30;;;;;;;;;;5062678;28;20052;-77
2022/03/14 00:41:21;;;;;;;12.32;8.07;;;;;;;;;;5010158;28;20094;-77
2022/03/14 00:43:47;;;;;;;13.32;8.25;;;;;;;;;;5027980;28;20063;-76
2022/03/14 00:46:17;;;;;;;11.88;8.25;;;;;;;;;;5010107;28;20101;-77
2022/03/14 00:48:44;;;;;;;12.38;8.32;;;;;;;;;;5009163;28;20284;-78
2022/03/14 00:51:10;;;;;;;13.55;8.00;;;;;;;;;;5020254;28;20374;-78
2022/03/14 00:53:37;;;;;;;12.25;8.52;;;;;;;;;;5010050;28;20041;-78
2022/03/14 00:56:04;;;;;;;13.00;8.50;;;;;;;;;;5010268;28;20052;-78
2022/03/14 00:58:30;;;;;;;12.15;8.57;;;;;;;;;;5010232;28;20037;-77
2022/03/14 01:00:56;;;;;;;13.60;8.23;;;;;;;;;;5027614;28;20049;-78
2022/03/14 01:03:22;;;;;;;11.52;7.95;;;;;;;;;;5009638;28;20033;-78
2022/03/14 01:05:48;;;;;;;12.27;7.88;;;;;;;;;;5010419;28;20486;-78
2022/03/14 01:08:16;;;;;;;14.07;8.25;;;;;;;;;;5010084;28;20482;-78
2022/03/14 01:10:43;;;;;;;10.85;7.32;;;;;;;;;;5009937;28;20057;-78
2022/03/14 01:13:11;;;;;;;11.32;7.53;;;;;;;;;;4993128;28;20132;-78
2022/03/14 01:15:38;;;;;;;12.35;8.15;;;;;;;;;;5027697;28;20455;-78
2022/03/14 01:18:05;;;;;;;10.35;7.18;;;;;;;;;;5027398;28;20049;-78
2022/03/14 01:20:31;;;;;;;11.35;7.35;;;;;;;;;;5009894;28;20402;-79
2022/03/14 01:22:57;;;;;;;11.15;7.45;;;;;;;;;;4993715;28;20132;-78
2022/03/14 01:25:24;;;;;;;10.05;7.00;;;;;;;;;;5009610;28;20045;-78
2022/03/14 01:27:51;;;;;;;9.63;6.50;;;;;;;;;;5009880;28;20048;-78
2022/03/14 01:30:19;;;;;;;11.25;7.53;;;;;;;;;;4993422;28;20041;-78
2022/03/14 01:32:45;;;;;;;10.75;7.35;;;;;;;;;;5009556;28;20073;-78
2022/03/14 01:35:11;;;;;;;10.73;6.82;;;;;;;;;;5009661;28;20390;-77
2022/03/14 01:37:38;;;;;;;10.07;6.93;;;;;;;;;;5027572;28;20375;-77
2022/03/14 01:40:04;;;;;;;11.32;7.13;;;;;;;;;;5009467;28;20554;-77
2022/03/14 01:42:30;;;;;;;10.25;6.60;;;;;;;;;;5009577;28;20052;-77
2022/03/14 01:44:56;;;;;;;10.23;6.60;;;;;;;;;;4993033;28;20049;-77
2022/03/14 01:47:22;;;;;;;10.57;7.03;;;;;;;;;;5009068;28;20046;-77
2022/03/14 01:49:49;;;;;;;11.57;6.70;;;;;;;;;;5009593;28;20517;-77
2022/03/14 01:52:15;;;;;;;9.20;6.32;;;;;;;;;;5018232;28;20511;-76
2022/03/14 01:54:42;;;;;;;10.40;6.50;;;;;;;;;;5009533;28;20401;-77
2022/03/14 01:57:08;;;;;;;11.15;6.97;;;;;;;;;;5009549;28;20041;-77
2022/03/14 01:59:35;;;;;;;11.10;6.80;;;;;;;;;;5009129;28;20491;-77
2022/03/14 02:02:01;;;;;;;11.25;6.90;;;;;;;;;;5030154;28;20069;-76
2022/03/14 02:04:27;;;;;;;12.68;6.70;;;;;;;;;;5031009;28;20042;-76
2022/03/14 02:06:55;;;;;;;9.43;6.53;;;;;;;;;;4996496;28;20037;-76
2022/03/14 02:09:21;;;;;;;8.52;6.28;;;;;;;;;;5012470;28;20041;-77
2022/03/14 02:11:52;;;;;;;11.15;6.88;;;;;;;;;;5010459;28;20474;-77
2022/03/14 02:14:19;;;;;;;9.98;6.85;;;;;;;;;;5012684;28;20033;-76
2022/03/14 02:16:45;;;;;;;9.90;6.82;;;;;;;;;;5030988;28;20038;-76
2022/03/14 02:19:11;;;;;;;10.48;6.65;;;;;;;;;;4996813;28;20044;-76
2022/03/14 02:21:38;;;;;;;10.38;6.68;;;;;;;;;;5013510;28;20037;-76
2022/03/14 02:24:04;;;;;;;10.23;6.50;;;;;;;;;;5012093;28;20475;-78
2022/03/14 02:26:30;;;;;;;9.75;6.22;;;;;;;;;;5008727;28;20080;-78
2022/03/14 02:28:58;;;;;;;9.77;5.70;;;;;;;;;;5012774;28;20337;-78
2022/03/14 02:31:24;;;;;;;7.80;5.13;;;;;;;;;;5012229;28;20048;-76
2022/03/14 02:33:50;;;;;;;9.10;5.38;;;;;;;;;;4996895;28;20389;-76
2022/03/14 02:36:16;;;;;;;7.70;5.10;;;;;;;;;;5030439;28;20037;-76
2022/03/14 02:38:43;;;;;;;8.32;5.40;;;;;;;;;;5030397;28;20081;-76
2022/03/14 02:41:10;;;;;;;7.13;5.00;;;;;;;;;;5012242;28;20069;-74
2022/03/14 02:43:36;;;;;;;7.22;4.97;;;;;;;;;;5012194;28;20444;-74
2022/03/14 02:46:02;;;;;;;6.97;4.70;;;;;;;;;;4996163;28;20367;-77
2022/03/14 02:48:30;;;;;;;7.15;5.13;;;;;;;;;;5011802;28;20050;-78
2022/03/14 02:50:56;;;;;;;6.95;4.68;;;;;;;;;;5012144;28;20048;-78
2022/03/14 02:53:23;;;;;;;6.70;4.35;;;;;;;;;;5011915;28;20044;-76
2022/03/14 02:55:49;;;;;;;6.80;4.78;;;;;;;;;;5029709;28;20379;-79
2022/03/14 02:58:15;;;;;;;6.75;4.43;;;;;;;;;;5029916;28;20482;-78
2022/03/14 03:00:42;;;;;;;7.32;4.70;;;;;;;;;;5009091;28;20041;-78
2022/03/14 03:03:11;;;;;;;7.00;4.65;;;;;;;;;;5010945;28;20098;-78
2022/03/14 03:05:43;;;;;;;6.28;4.30;;;;;;;;;;5010589;28;20042;-78
2022/03/14 03:08:09;;;;;;;6.68;4.45;;;;;;;;;;4996242;28;20049;-78
2022/03/14 03:10:35;;;;;;;6.55;4.53;;;;;;;;;;5029544;28;20090;-78
2022/03/14 03:13:02;;;;;;;7.50;4.43;;;;;;;;;;4995542;28;20045;-78
2022/03/14 03:15:29;;;;;;;6.88;4.50;;;;;;;;;;5011855;28;20505;-78
2022/03/14 03:17:55;;;;;;;7.03;4.78;;;;;;;;;;5011906;28;20109;-78
2022/03/14 03:20:22;;;;;;;6.90;4.35;;;;;;;;;;5011261;28;20041;-78
2022/03/14 03:22:49;;;;;;;7.05;4.68;;;;;;;;;;5029266;28;20045;-78
2022/03/14 03:25:16;;;;;;;6.90;4.20;;;;;;;;;;5011319;28;20493;-78
2022/03/14 03:27:42;;;;;;;6.15;4.20;;;;;;;;;;5011938;28;20494;-78
2022/03/14 03:30:08;;;;;;;6.28;4.03;;;;;;;;;;5011141;28;20135;-78
2022/03/14 03:32:34;;;;;;;6.05;4.07;;;;;;;;;;4995109;28;20037;-78
2022/03/14 03:35:01;;;;;;;6.38;3.70;;;;;;;;;;5028779;28;20044;-78
2022/03/14 03:37:27;;;;;;;5.63;3.63;;;;;;;;;;5011779;28;20481;-78
2022/03/14 03:39:53;;;;;;;5.43;3.50;;;;;;;;;;5029280;28;20045;-78
2022/03/14 03:42:19;;;;;;;5.05;3.17;;;;;;;;;;4995563;28;20099;-78
2022/03/14 03:44:45;;;;;;;4.38;3.10;;;;;;;;;;5029746;28;20041;-76
2022/03/14 03:47:12;;;;;;;5.20;2.83;;;;;;;;;;5011567;28;20053;-76
2022/03/14 03:49:38;;;;;;;4.53;3.10;;;;;;;;;;5011124;28;20049;-77
2022/03/14 03:52:05;;;;;;;5.13;2.90;;;;;;;;;;5010715;28;20038;-78
2022/03/14 03:54:32;;;;;;;4.05;2.72;;;;;;;;;;4994785;28;20037;-78
2022/03/14 03:56:58;;;;;;;4.88;3.00;;;;;;;;;;5011168;28;20045;-78
2022/03/14 03:59:24;;;;;;;4.65;2.60;;;;;;;;;;4994714;28;20048;-78
2022/03/14 04:01:50;;;;;;;3.85;2.53;;;;;;;;;;4995484;28;20124;-78
2022/03/14 04:04:17;;;;;;;4.70;3.03;;;;;;;;;;4994336;28;20042;-78
2022/03/14 04:06:44;;;;;;;3.75;2.63;;;;;;;;;;5010785;28;20034;-78
2022/03/14 04:09:10;;;;;;;3.83;2.63;;;;;;;;;;5010812;28;20052;-78
2022/03/14 04:11:37;;;;;;;5.50;2.65;;;;;;;;;;5029201;28;20854;-79
2022/03/14 04:14:03;;;;;;;5.57;2.75;;;;;;;;;;5010572;28;20049;-78
2022/03/14 04:16:30;;;;;;;4.53;2.85;;;;;;;;;;5005742;28;20566;-78
2022/03/14 04:18:56;;;;;;;4.32;2.60;;;;;;;;;;5011393;28;20387;-78
2022/03/14 04:21:23;;;;;;;3.72;2.50;;;;;;;;;;5010447;28;20037;-78
2022/03/14 04:23:49;;;;;;;4.05;2.53;;;;;;;;;;5028386;28;20137;-78
2022/03/14 04:26:15;;;;;;;4.18;2.70;;;;;;;;;;5011407;28;20639;-78
2022/03/14 04:28:42;;;;;;;3.72;2.47;;;;;;;;;;5011543;28;20078;-75
2022/03/14 04:31:08;;;;;;;4.13;2.90;;;;;;;;;;4994675;28;20110;-76
2022/03/14 04:33:35;;;;;;;5.90;2.72;;;;;;;;;;4995304;28;20044;-78
2022/03/14 04:36:01;;;;;;;3.88;2.55;;;;;;;;;;5010013;28;20326;-78
2022/03/14 04:38:28;;;;;;;4.75;2.55;;;;;;;;;;5010623;28;20053;-78
2022/03/14 04:40:54;;;;;;;3.47;2.17;;;;;;;;;;5011204;28;20033;-79
2022/03/14 04:43:21;;;;;;;3.83;2.60;;;;;;;;;;5011873;28;20440;-77
2022/03/14 04:45:47;;;;;;;3.53;2.20;;;;;;;;;;4995108;28;20049;-76
2022/03/14 04:48:14;;;;;;;3.95;2.38;;;;;;;;;;5011702;28;20045;-76
2022/03/14 04:50:41;;;;;;;3.85;2.40;;;;;;;;;;5028752;28;20468;-76
2022/03/14 04:53:07;;;;;;;3.63;2.47;;;;;;;;;;5028821;28;20067;-78
2022/03/14 04:55:34;;;;;;;3.60;2.45;;;;;;;;;;5028550;28;20492;-76
2022/03/14 04:58:01;;;;;;;4.13;2.65;;;;;;;;;;5010735;28;20060;-76
2022/03/14 05:00:29;;;;;;;3.25;2.20;;;;;;;;;;5007777;28;20046;-76
2022/03/14 05:03:04;;;;;;;4.22;2.60;;;;;;;;;;5005832;28;20042;-76
2022/03/14 05:05:30;;;;;;;5.03;2.40;;;;;;;;;;4992531;28;20045;-76
2022/03/14 05:07:57;;;;;;;4.10;2.20;;;;;;;;;;5009939;28;20049;-76
2022/03/14 05:10:23;;;;;;;4.03;2.50;;;;;;;;;;5028007;28;20037;-77
2022/03/14 05:12:50;;;;;;;4.63;2.50;;;;;;;;;;5028631;28;20089;-76
2022/03/14 05:15:16;;;;;;;3.50;2.22;;;;;;;;;;5010078;28;20037;-77
2022/03/14 05:17:42;;;;;;;4.00;2.53;;;;;;;;;;4994063;28;20423;-76
2022/03/14 05:20:09;;;;;;;5.13;2.50;;;;;;;;;;5028274;28;20033;-78
2022/03/14 05:22:55;;;;;;;3.53;2.30;;;;;;;;;;4995153;28;20801;-76
2022/03/14 05:25:23;;;;;;;3.92;2.60;;;;;;;;;;4994430;28;20033;-74
2022/03/14 05:27:50;;;;;;;4.38;2.88;;;;;;;;;;5010367;28;20034;-76
2022/03/14 05:30:16;;;;;;;4.13;2.63;;;;;;;;;;5009723;28;20090;-76
2022/03/14 05:32:42;;;;;;;4.20;2.80;;;;;;;;;;5027709;28;20041;-76
2022/03/14 05:35:11;;;;;;;4.18;2.88;;;;;;;;;;5008283;28;20120;-76
2022/03/14 05:37:39;;;;;;;6.43;2.80;;;;;;;;;;5009209;28;20033;-76
2022/03/14 05:40:06;;;;;;;4.53;3.00;;;;;;;;;;5009975;28;20037;-76
2022/03/14 05:42:32;;;;;;;5.43;3.00;;;;;;;;;;5010349;28;20030;-78
2022/03/14 05:44:58;;;;;;;4.38;3.00;;;;;;;;;;5027686;28;20056;-77
2022/03/14 05:47:24;;;;;;;4.68;3.08;;;;;;;;;;4992009;28;20081;-77
2022/03/14 05:49:50;;;;;;;4.40;3.00;;;;;;;;;;4993063;28;20064;-78
2022/03/14 05:52:17;;;;;;;4.80;3.22;;;;;;;;;;5009207;28;20057;-78
2022/03/14 05:54:43;;;;;;;4.78;3.20;;;;;;;;;;5027150;28;20067;-78
2022/03/14 05:57:09;;;;;;;4.70;2.90;;;;;;;;;;4992486;28;20064;-78
2022/03/14 05:59:35;;;;;;;5.07;3.15;;;;;;;;;;5009163;28;20052;-76
2022/03/14 06:02:01;;;;;;;4.68;3.22;;;;;;;;;;5008996;28;20038;-77
2022/03/14 06:04:27;;;;;;;4.47;2.92;;;;;;;;;;5009256;28;20037;-76
2022/03/14 06:06:53;;;;;;;5.75;3.30;;;;;;;;;;5009449;28;20443;-76
2022/03/14 06:09:21;;;;;;;4.97;3.30;;;;;;;;;;5060787;28;20036;-76
2022/03/14 06:11:47;;;;;;;4.97;3.40;;;;;;;;;;5009206;28;20406;-77
2022/03/14 06:14:13;;;;;;;5.47;3.45;;;;;;;;;;5009156;28;20120;-76
2022/03/14 06:16:40;;;;;;;4.75;3.25;;;;;;;;;;5008664;28;20045;-76
2022/03/14 06:19:08;;;;;;;5.43;3.60;;;;;;;;;;5008670;28;20045;-76
2022/03/14 06:21:34;;;;;;;5.63;3.40;;;;;;;;;;5009097;28;20042;-77
2022/03/14 06:24:01;;;;;;;4.63;3.10;;;;;;;;;;5026453;28;20048;-76
2022/03/14 06:26:27;;;;;;;5.20;3.42;;;;;;;;;;5008499;28;20383;-77
2022/03/14 06:28:53;;;;;;;5.55;3.60;;;;;;;;;;5009174;28;20505;-77
2022/03/14 06:31:19;;;;;;;5.07;3.53;;;;;;;;;;5008094;28;20049;-77
2022/03/14 06:33:46;;;;;;;4.85;3.58;;;;;;;;;;5008512;28;20073;-76
2022/03/14 06:36:12;;;;;;;5.40;3.85;;;;;;;;;;5008473;28;20941;-79
2022/03/14 06:38:38;;;;;;;5.10;3.50;;;;;;;;;;5026716;28;20045;-77
2022/03/14 06:41:05;;;;;;;5.07;3.45;;;;;;;;;;5026521;28;20076;-77
2022/03/14 06:43:32;;;;;;;7.18;4.18;;;;;;;;;;5008605;28;20052;-77
2022/03/14 06:45:58;;;;;;;6.43;4.70;;;;;;;;;;5009414;28;20128;-77
2022/03/14 06:48:25;;;;;;;6.82;4.40;;;;;;;;;;5011696;28;20077;-77
2022/03/14 06:50:51;;;;;;;6.75;4.35;;;;;;;;;;5029873;28;20048;-77
2022/03/14 06:53:17;;;;;;;6.22;4.50;;;;;;;;;;4995702;28;20463;-76
2022/03/14 06:55:43;;;;;;;6.80;4.50;;;;;;;;;;5012164;28;20098;-76
2022/03/14 06:58:09;;;;;;;6.97;4.72;;;;;;;;;;5029620;28;20470;-76
2022/03/14 07:00:36;;;;;;;7.35;4.85;;;;;;;;;;5011926;28;20064;-76
2022/03/14 07:03:02;;;;;;;7.05;5.13;;;;;;;;;;5011787;28;20398;-77
2022/03/14 07:05:28;;;;;;;7.78;5.22;;;;;;;;;;5011698;28;20130;-76
2022/03/14 07:07:54;;;;;;;7.65;5.35;;;;;;;;;;4995128;28;20042;-78
2022/03/14 07:10:21;;;;;;;7.93;5.50;;;;;;;;;;5011461;28;20045;-78
2022/03/14 07:12:48;;;;;;;7.38;5.32;;;;;;;;;;5011812;28;20478;-76
2022/03/14 07:15:20;;;;;;;10.20;5.40;;;;;;;;;;5011334;28;20082;-76
2022/03/14 07:17:47;;;;;;;8.88;5.80;;;;;;;;;;5029145;28;20056;-76
2022/03/14 07:20:13;;;;;;;7.82;5.70;;;;;;;;;;5011569;28;20345;-76
2022/03/14 07:22:56;;;;;;;8.20;5.45;;;;;;;;;;5011861;28;20405;-78
2022/03/14 07:25:26;;;;;;;9.32;5.85;;;;;;;;;;5011318;28;20112;-76
2022/03/14 07:27:53;;;;;;;8.50;6.10;;;;;;;;;;4995189;28;20053;-78
2022/03/14 07:30:19;;;;;;;9.15;5.80;;;;;;;;;;5011507;28;20102;-78
2022/03/14 07:32:46;;;;;;;8.13;5.70;;;;;;;;;;4994893;28;20112;-76
2022/03/14 07:35:12;;;;;;;8.35;6.15;;;;;;;;;;5010856;28;20043;-78
2022/03/14 07:37:39;;;;;;;8.15;6.15;;;;;;;;;;5029371;28;20501;-78
2022/03/14 07:40:06;;;;;;;7.90;6.10;;;;;;;;;;5011295;28;20067;-76
2022/03/14 07:42:32;;;;;;;9.18;6.75;;;;;;;;;;5011315;28;20402;-78
2022/03/14 07:44:58;;;;;;;10.38;6.90;;;;;;;;;;5011224;28;20076;-77
2022/03/14 07:47:24;;;;;;;9.68;7.18;;;;;;;;;;5010566;28;20514;-76
2022/03/14 07:49:50;;;;;;;10.38;7.63;;;;;;;;;;5028774;28;20038;-75
2022/03/14 07:52:18;;;;;;;10.70;7.70;;;;;;;;;;5018197;28;20038;-78
2022/03/14 07:54:44;;;;;;;13.75;9.80;;;;;;;;;;5011081;28;20088;-78
2022/03/14 07:57:10;;;;;;;17.40;11.32;;;;;;;;;;5062200;28;20526;-76
2022/03/14 07:59:36;;;;;;;18.67;12.73;;;;;;;;;;5010856;28;20041;-76
2022/03/14 08:02:03;;;;;;;22.05;13.73;;;;;;;;;;5011435;28;20490;-78
2022/03/14 08:04:29;;;;;;;19.70;12.85;;;;;;;;;;5011153;28;20050;-79
2022/03/14 08:06:55;;;;;;;20.13;13.50;;;;;;;;;;5011034;28;20037;-78
2022/03/14 08:09:21;;;;;;;23.95;15.48;;;;;;;;;;4994189;28;20050;-76
2022/03/14 08:11:47;;;;;;;29.63;17.95;;;;;;;;;;5028750;28;20045;-76
2022/03/14 08:14:13;;;;;;;27.92;17.33;;;;;;;;;;5028056;28;20033;-76
2022/03/14 08:16:39;;;;;;;32.58;19.17;;;;;;;;;;5010858;28;20033;-79
2022/03/14 08:19:06;;;;;;;32.38;18.95;;;;;;;;;;4994762;28;20041;-79
2022/03/14 08:21:33;;;;;;;33.67;19.77;;;;;;;;;;4994394;28;20071;-79
2022/03/14 08:23:59;;;;;;;34.40;19.65;;;;;;;;;;5010698;28;20395;-79
2022/03/14 08:26:25;;;;;;;35.50;19.60;;;;;;;;;;4993811;28;20037;-78
2022/03/14 08:28:51;;;;;;;36.03;19.73;;;;;;;;;;5028137;28;20253;-79
2022/03/14 08:31:20;;;;;;;36.80;20.42;;;;;;;;;;5010253;28;20044;-77
2022/03/14 08:33:47;;;;;;;36.72;20.05;;;;;;;;;;4994547;28;20046;-76
2022/03/14 08:36:13;;;;;;;34.90;20.50;;;;;;;;;;4994109;28;20037;-77
2022/03/14 08:38:40;;;;;;;32.17;18.85;;;;;;;;;;5009882;28;20042;-76
2022/03/14 08:41:07;;;;;;;35.17;19.73;;;;;;;;;;4994303;28;20049;-77
2022/03/14 08:43:33;;;;;;;34.88;18.48;;;;;;;;;;5010055;28;20045;-77
2022/03/14 08:45:59;;;;;;;30.38;17.70;;;;;;;;;;5010225;28;20041;-77
2022/03/14 08:48:26;;;;;;;32.22;16.95;;;;;;;;;;5009455;28;20056;-76
2022/03/14 08:50:52;;;;;;;31.13;17.13;;;;;;;;;;5010406;28;20033;-76
2022/03/14 08:53:19;;;;;;;30.92;16.77;;;;;;;;;;5009684;28;20037;-76
2022/03/14 08:55:45;;;;;;;26.65;15.40;;;;;;;;;;5028085;28;20502;-78
2022/03/14 08:58:11;;;;;;;26.98;14.48;;;;;;;;;;5025442;28;20038;-78
2022/03/14 09:00:38;;;;;;;31.73;15.93;;;;;;;;;;5028533;28;20040;-78
2022/03/14 09:03:04;;;;;;;30.05;15.50;;;;;;;;;;5010693;28;20398;-78
2022/03/14 09:05:30;;;;;;;27.55;14.80;;;;;;;;;;5009674;28;20470;-78
2022/03/14 09:07:57;;;;;;;31.63;14.65;;;;;;;;;;4993769;28;20152;-78
2022/03/14 09:10:23;;;;;;;25.73;13.75;;;;;;;;;;5009671;28;21116;-79
2022/03/14 09:12:49;;;;;;;25.20;14.10;;;;;;;;;;5010314;28;20398;-78
2022/03/14 09:15:16;;;;;;;24.63;13.27;;;;;;;;;;5027327;28;20056;-78
2022/03/14 09:17:54;;;;;;;22.92;12.27;;;;;;;;;;4993320;28;20048;-77
2022/03/14 09:20:21;;;;;;;22.45;11.50;;;;;;;;;;5027224;28;20048;-77
2022/03/14 09:22:48;;;;;;;23.23;11.68;;;;;;;;;;5010029;28;20096;-77
2022/03/14 09:25:14;;;;;;;22.83;10.98;;;;;;;;;;5009705;28;20042;-77
2022/03/14 09:27:41;;;;;;;19.02;10.57;;;;;;;;;;5009754;28;20037;-77
2022/03/14 09:30:09;;;;;;;18.88;9.73;;;;;;;;;;5007447;28;20128;-77
2022/03/14 09:32:36;;;;;;;17.30;8.30;;;;;;;;;;5027362;28;20037;-77
2022/03/14 09:35:03;;;;;;;15.80;7.57;;;;;;;;;;5027480;28;20054;-78
2022/03/14 09:37:30;;;;;;;13.18;7.00;;;;;;;;;;5061505;28;20130;-77
2022/03/14 09:39:56;;;;;;;16.42;7.65;;;;;;;;;;4993045;28;20033;-77
2022/03/14 09:42:24;;;;;;;14.32;6.70;;;;;;;;;;5009395;28;20045;-77
2022/03/14 09:44:53;;;;;;;15.07;6.82;;;;;;;;;;5009723;28;20073;-76
2022/03/14 09:47:22;;;;;;;17.55;7.28;;;;;;;;;;5009229;28;20049;-77
2022/03/14 09:49:49;;;;;;;14.38;6.53;;;;;;;;;;5009239;28;20510;-76
2022/03/14 09:52:16;;;;;;;15.48;6.25;;;;;;;;;;5009035;28;20045;-77
2022/03/14 09:54:42;;;;;;;16.85;6.32;;;;;;;;;;5009429;28;20121;-76
2022/03/14 09:57:08;;;;;;;12.90;5.55;;;;;;;;;;5061936;28;20474;-77
2022/03/14 09:59:36;;;;;;;12.38;5.10;;;;;;;;;;5008837;28;20120;-77
2022/03/14 10:02:02;;;;;;;11.60;4.45;;;;;;;;;;5026944;28;20086;-77
2022/03/14 10:04:28;;;;;;;15.05;4.90;;;;;;;;;;5008744;28;20052;-77
2022/03/14 10:06:54;;;;;;;11.35;4.20;;;;;;;;;;5027053;28;20446;-76
2022/03/14 10:09:20;;;;;;;13.82;4.70;;;;;;;;;;5006354;28;20033;-77
2022/03/14 10:11:47;;;;;;;11.85;4.43;;;;;;;;;;5008709;28;20045;-78
2022/03/14 10:14:17;;;;;;;12.43;5.03;;;;;;;;;;5009070;28;20120;-78
2022/03/14 10:16:44;;;;;;;14.95;5.47;;;;;;;;;;5027608;28;20049;-75
2022/03/14 10:19:12;;;;;;;10.95;4.60;;;;;;;;;;5009074;28;20090;-79
2022/03/14 10:21:39;;;;;;;11.45;4.57;;;;;;;;;;5011095;28;20490;-78
2022/03/14 10:24:07;;;;;;;11.30;4.88;;;;;;;;;;5012146;28;20080;-78
2022/03/14 10:26:34;;;;;;;16.02;6.50;;;;;;;;;;5012142;28;20041;-78
2022/03/14 10:29:01;;;;;;;14.45;5.72;;;;;;;;;;5012498;28;20062;-78
2022/03/14 10:31:32;;;;;;;15.88;6.70;;;;;;;;;;5012372;28;20406;-76
2022/03/14 10:34:10;;;;;;;15.13;7.15;;;;;;;;;;5012528;28;20120;-78
2022/03/14 10:36:47;;;;;;;15.73;8.70;;;;;;;;;;5012276;28;20051;-78
2022/03/14 10:39:18;;;;;;;16.85;8.75;;;;;;;;;;5012690;28;20402;-77
2022/03/14 10:42:03;;;;;;;23.42;11.38;;;;;;;;;;5013587;28;20379;-76
2022/03/14 10:44:30;;;;;;;26.75;13.57;;;;;;;;;;5012957;28;20084;-78
2022/03/14 10:46:59;;;;;;;24.88;13.23;;;;;;;;;;5012343;28;20041;-78
2022/03/14 10:49:33;;;;;;;24.95;14.43;;;;;;;;;;5012037;28;20037;-78
2022/03/14 10:52:00;;;;;;;22.95;12.88;;;;;;;;;;4995966;28;20041;-78
2022/03/14 10:54:26;;;;;;;24.20;12.73;;;;;;;;;;5011968;28;20446;-78
2022/03/14 10:57:00;;;;;;;20.40;13.05;;;;;;;;;;5012432;28;20062;-77
2022/03/14 10:59:33;;;;;;;24.38;12.52;;;;;;;;;;5011445;28;20513;-76
2022/03/14 11:02:00;;;;;;;21.00;12.82;;;;;;;;;;4995614;28;20402;-77
2022/03/14 11:04:27;;;;;;;22.42;12.75;;;;;;;;;;5011646;28;20082;-78
2022/03/14 11:07:00;;;;;;;21.52;12.23;;;;;;;;;;4995529;28;20110;-78
2022/03/14 11:09:46;;;;;;;20.88;13.25;;;;;;;;;;4994981;28;20042;-78
2022/03/14 11:12:13;;;;;;;;;;;;;;;;;;5012439;28;20471;-78
2022/03/14 11:14:39;;;;;;;26.45;13.00;;;;;;;;;;5011578;28;20012;-78
2022/03/14 11:17:10;;;;;;;20.98;11.82;;;;;;;;;;5012087;28;20038;-78
2022/03/14 11:19:36;;;;;;;20.50;12.63;;;;;;;;;;5008938;28;20443;-78
2022/03/14 11:22:02;;;;;;;21.25;12.95;;;;;;;;;;5012120;28;20124;-78
2022/03/14 11:24:29;;;;;;;21.40;13.35;;;;;;;;;;5011531;28;20041;-78
2022/03/14 11:26:56;;;;;;;23.52;13.43;;;;;;;;;;5011864;28;20048;-80
2022/03/14 11:29:22;;;;;;;26.08;14.38;;;;;;;;;;4978648;28;20121;-78
2022/03/14 11:31:49;;;;;;;22.08;14.57;;;;;;;;;;5011404;28;20073;-77
2022/03/14 11:34:16;;;;;;;23.55;15.15;;;;;;;;;;5010525;28;20053;-77
2022/03/14 11:36:43;;;;;;;25.88;15.45;;;;;;;;;;5029458;28;20034;-78
2022/03/14 11:39:10;;;;;;;29.67;15.80;;;;;;;;;;4979050;28;20045;-77
2022/03/14 11:41:38;;;;;;;25.00;16.35;;;;;;;;;;5028716;28;20116;-77
2022/03/14 11:44:06;;;;;;;25.60;15.95;;;;;;;;;;5029099;28;20109;-76
2022/03/14 11:46:35;;;;;;;26.13;17.92;;;;;;;;;;5011430;28;20037;-77
2022/03/14 11:49:13;;;;;;;24.70;16.25;;;;;;;;;;5028651;28;20053;-77
2022/03/14 11:51:41;;;;;;;24.35;16.50;;;;;;;;;;5010656;28;20042;-77
2022/03/14 11:54:14;;;;;;;26.17;17.05;;;;;;;;;;5010702;28;20041;-76
2022/03/14 11:57:00;;;;;;;23.73;16.67;;;;;;;;;;5028037;28;20475;-77
2022/03/14 11:59:27;;;;;;;;;;;;;;;;;;5021256;28;20079;-78
2022/03/14 12:01:55;;;;;;;;;;;;;;;;;;5011674;28;19981;-78
2022/03/14 12:04:29;;;;;;;25.20;16.35;;;;;;;;;;5028484;28;20649;-78
2022/03/14 12:06:55;;;;;;;26.13;16.92;;;;;;;;;;5011300;28;20072;-78
2022/03/14 12:09:25;;;;;;;26.30;16.48;;;;;;;;;;4994849;28;20038;-78
2022/03/14 12:11:55;;;;;;;24.90;15.65;;;;;;;;;;5011121;28;20045;-78
2022/03/14 12:14:41;;;;;;;23.48;15.60;;;;;;;;;;5020633;28;20525;-78
2022/03/14 12:17:13;;;;;;;21.58;14.35;;;;;;;;;;5010652;28;20087;-78
2022/03/14 12:19:42;;;;;;;24.00;14.73;;;;;;;;;;5028025;28;20468;-79
2022/03/14 12:22:13;;;;;;;23.48;14.73;;;;;;;;;;5028929;28;20156;-78
2022/03/14 12:24:39;;;;;;;23.00;14.88;;;;;;;;;;5028204;28;20079;-77
2022/03/14 12:27:14;;;;;;;22.65;14.90;;;;;;;;;;4994257;28;20064;-79
2022/03/14 12:29:40;;;;;;;23.08;14.77;;;;;;;;;;5028158;28;20099;-77
2022/03/14 12:32:27;;;;;;;21.13;14.13;;;;;;;;;;5011130;28;20459;-76
2022/03/14 12:34:53;;;;;;;;;;;;;;;;;;5028340;28;20038;-78
2022/03/14 12:37:26;;;;;;;25.15;14.93;;;;;;;;;;5009938;28;20274;-75
2022/03/14 12:39:52;;;;;;;24.15;14.45;;;;;;;;;;5007793;28;20049;-77
2022/03/14 12:42:23;;;;;;;21.70;14.30;;;;;;;;;;5009842;28;20044;-74
2022/03/14 12:45:09;;;;;;;24.20;14.98;;;;;;;;;;4993984;28;20038;-77
2022/03/14 12:47:42;;;;;;;19.60;13.18;;;;;;;;;;5008717;28;20065;-75
2022/03/14 12:50:10;;;;;;;20.77;13.85;;;;;;;;;;5010429;28;20038;-76
2022/03/14 12:52:59;;;;;;;20.55;13.68;;;;;;;;;;5028167;28;20498;-76
2022/03/14 12:55:25;;;;;;;20.35;12.45;;;;;;;;;;5000559;28;20053;-76
2022/03/14 12:57:52;;;;;;;21.48;12.70;;;;;;;;;;5010622;28;20122;-75
2022/03/14 13:00:18;;;;;;;20.98;12.20;;;;;;;;;;5010371;28;20045;-75
2022/03/14 13:02:44;;;;;;;20.08;11.93;;;;;;;;;;5027534;28;20041;-74
2022/03/14 13:05:11;;;;;;;20.83;12.40;;;;;;;;;;4993876;28;20038;-75
2022/03/14 13:07:37;;;;;;;17.98;11.23;;;;;;;;;;5010102;28;20037;-76
2022/03/14 13:10:03;;;;;;;19.40;11.20;;;;;;;;;;5010288;28;20121;-77
2022/03/14 13:12:30;;;;;;;19.95;11.20;;;;;;;;;;5009773;28;20048;-77
2022/03/14 13:15:06;;;;;;;20.42;11.43;;;;;;;;;;5010138;28;20053;-76
2022/03/14 13:17:32;;;;;;;18.10;10.23;;;;;;;;;;5027217;28;20045;-76
2022/03/14 13:19:58;;;;;;;17.58;10.10;;;;;;;;;;5009705;28;20047;-74
2022/03/14 13:22:24;;;;;;;20.15;12.00;;;;;;;;;;5022021;28;20156;-75
2022/03/14 13:24:53;;;;;;;20.95;11.00;;;;;;;;;;5020406;28;20398;-75
2022/03/14 13:27:25;;;;;;;20.75;12.07;;;;;;;;;;5027106;28;20042;-76
2022/03/14 13:29:52;;;;;;;20.98;10.88;;;;;;;;;;5009579;28;20034;-75
2022/03/14 13:32:21;;;;;;;19.02;10.27;;;;;;;;;;5027144;28;20410;-75
2022/03/14 13:35:16;;;;;;;20.55;11.10;;;;;;;;;;5009658;28;20045;-76
2022/03/14 13:37:47;;;;;;;21.45;11.00;;;;;;;;;;5009497;28;20045;-76
2022/03/14 13:40:20;;;;;;;20.70;10.80;;;;;;;;;;5009650;28;20059;-76
2022/03/14 13:42:46;;;;;;;21.65;10.98;;;;;;;;;;5009498;28;20045;-76
2022/03/14 13:45:13;;;;;;;18.75;9.85;;;;;;;;;;5010180;28;20097;-77
2022/03/14 13:47:40;;;;;;;17.48;9.05;;;;;;;;;;5021883;28;20040;-77
2022/03/14 13:50:06;;;;;;;16.30;8.05;;;;;;;;;;5084130;28;20524;-78
2022/03/14 13:52:32;;;;;;;22.58;8.98;;;;;;;;;;5083333;28;20100;-76
2022/03/14 13:54:59;;;;;;;15.32;8.20;;;;;;;;;;5088417;28;20065;-77
2022/03/14 13:57:25;;;;;;;15.82;7.70;;;;;;;;;;5086920;28;20052;-77
2022/03/14 13:59:52;;;;;;;20.42;7.70;;;;;;;;;;5085985;28;20517;-76
2022/03/14 14:02:32;;;;;;;16.35;6.88;;;;;;;;;;5069921;28;20668;-76
2022/03/14 14:05:06;;;;;;;17.00;6.32;;;;;;;;;;5085555;28;20043;-77
2022/03/14 14:07:33;;;;;;;17.33;6.55;;;;;;;;;;5085809;28;20047;-76
2022/03/14 14:10:01;;;;;;;13.75;5.65;;;;;;;;;;5087075;28;20043;-77
2022/03/14 14:12:27;;;;;;;16.83;5.82;;;;;;;;;;5083366;28;20110;-76
2022/03/14 14:15:00;;;;;;;17.17;5.78;;;;;;;;;;5087560;28;20193;-76
2022/03/14 14:17:40;;;;;;;15.80;5.57;;;;;;;;;;5088481;28;20485;-76
2022/03/14 14:20:06;;;;;;;15.93;5.30;;;;;;;;;;5086404;28;20044;-76
2022/03/14 14:22:33;;;;;;;12.15;4.70;;;;;;;;;;5087738;28;20044;-77
2022/03/14 14:25:00;;;;;;;13.57;5.05;;;;;;;;;;5072077;28;20043;-76
2022/03/14 14:27:26;;;;;;;12.38;5.07;;;;;;;;;;5088273;28;20094;-77
2022/03/14 14:29:57;;;;;;;11.70;4.78;;;;;;;;;;5071940;28;20044;-78
2022/03/14 14:32:24;;;;;;;13.18;5.03;;;;;;;;;;5088474;28;20097;-78
2022/03/14 14:34:50;;;;;;;14.05;4.60;;;;;;;;;;5088602;28;20131;-76
2022/03/14 14:37:16;;;;;;;13.25;4.20;;;;;;;;;;5082316;28;20040;-77